Vass, North Carolina
Current Conditions -  °F | °C
As of 1:15 PM on Friday 31 Oct 2014 (Local Time) from KSOP Reporting Station
Clear Clear  
Wind Chill: 61°   Ceiling: Unl
Heat Index: 61°   Visibility: 10mi
Dew Point: 41°   Wind: 5mph
Humidity: 48%   Direction: 80°E
Pressure: 29.88"   Gusts: NA
Location:  35.26°N, 79.28°W
Report Text: KSOP 311715Z AUTO 08004KT 10SM CLR 16/05 A2988 RMK AO1
Loading
Personal Weather Stations






























Interactive Weather Map New forecast layout! Learn more

10-Day Weather Forecast

Advertisements
Track Severe Weather on mobile